Relevés horaires Beauvechain (Belgique)


Relevés horaires à Beauvechain - Lundi 12 Sept. 2022
Heure UTC1 Température [°C] Vent [km/h] Hum. [%] Pres.4 [hPa] Visi. [Km] Nébu. [octa] Préc.5 [mm] Cond.
2m. Res. Ros. Dir.2 Vit. Moy. Raf.3
23:00 18.6 18.6 12.2 NNO 1.9 -- 3.7 66 1011.2(-0.3/3h) 20 -- -- --
22:00 17.3 17.3 11.8 NNO 1.9 -- 3.7 70 1011.7(0.1/3h) 20 2/8 -- --
21:00 19.9 19.9 11.5 S 3.7 -- 7.4 58 1011.1(0.0/3h) 20 2/8 -- --
20:00 21.0 21.0 10.8 SSO 3.7 -- 5.6 52 1011.5(0.0/3h) 20 4/8 -- --
19:00 21.2 21.2 11.1 S 3.7 -- 5.6 52 1011.2(-0.8/3h) 20 4/8 -- --
18:00 22.7 22.7 11.3 SSE 3.7 -- 11.1 49 1011.1(-1.4/3h) 20 5/8 -- --
17:00 24.1 24.1 11.3 SSE 3.7 -- 9.3 45 1011.3(-1.6/3h) 20 4/8 -- --
16:00 25.4 25.4 11.1 S 3.7 -- 9.3 41 1012(-1.4/3h) 20 4/8 -- --
15:00 24.8 24.8 10.3 S 5.6 -- 11.1 40 1012.3(-1.3/3h) 20 4/8 -- --
14:00 23.8 23.8 10.8 S 3.7 -- 11.1 44 1013.1(-1.2/3h) 20 4/8 -- --
13:00 23.9 23.9 11.8 S 3.7 -- 9.3 47 1013.5(-1.3/3h) 20 4/8 -- --
12:00 22.6 22.6 11.1 S 3.7 -- 9.3 48 1014(-1.2/3h) 20 3/8 -- --
11:00 22.0 22.0 12.0 S 3.7 -- 9.3 53 1014.3(-0.9/3h) 20 3/8 -- --
10:00 20.8 20.8 12.8 NNO 1.9 -- 9.3 60 1015(-0.5/3h) 20 3/8 -- --
09:00 19.8 19.8 13.2 S 5.6 -- 9.3 66 1015.3(-0.1/3h) 20 3/8 -- --
08:00 17.5 17.5 13.5 S 5.6 -- 9.3 77 1015.6(0.0/3h) 20 3/8 -- --
07:00 15.3 15.3 12.8 SSE 3.7 -- 5.6 85 1015.7(0.0/3h) 19 3/8 -- --
06:00 14.0 14.0 12.3 S 3.7 -- 5.6 89 1015.8(-0.3/3h) 7 3/8 -- --
04:00 13.9 13.9 12.4 SE 3.7 -- 5.6 91 1015.7(-1.1/3h) 12 -- -- --
01:00 14.7 14.7 12.8 NNO 1.9 -- 3.7 88 1016.8(-1.1/3h) 15 -- -- --
00:00 14.9 14.9 12.4 NNO 1.9 -- 5.6 85 1017.2(-0.9/3h) 16 -- -- --

1 Coordinated Universal Time. Actuellement il est 18:00 locale et 17:00 UTC.

2 Le vent souffle depuis la direction indiquée vers la direction oposée.

3 Les rafales max. sont disponible 40 min après l'heure du relevé.

4 Pour les stations d'altitude (plus de 600m) le géopotentiel du niveau le plus proche de la pression obligatoire est indiqué.

5 Les stations disposant d'un diffuseur peuvent indiquer "trace". Cela signifie que des précipitations ont touchés le sol mais que la quantité est inférieure à 0.1 mm.

Récapitulatif de la journée
Température [°C] Vent [km/h] Ensoleillement4 [h] Precipitations totale5 [mm] Pression [Hpa]
Min1 Max.2 Moy.3 Max. Min Max.
13.3 25.8 0 11.1 0 h 0 min 0 1011.1 1017.2

1 Température minimale relevée entre 18:00 UTC la veille et 18:00 UTC le jour donné.

2 Température maximale relevée entre 06:00 UTC le jour donné et 06:00 UTC le lendemain.

3 Vent moyen de la journée basé sur les relevés horaires.

4 Ensoleillement en heures relevé entre 06:00 UTC la veille et 06:00 UTC le jour donné.

5 Précipitations totales tombées entre 06:00 UTC la jour donné et 06:00 UTC le lendemain.

Graphiques horaires